Ana Sayfa
METAR-TAF:

METAR-TAF

Havaalanları :

Bahreyn, Bahreyn

Enlem: 26-16N, Boylam: 050-39E, yükseklik: 2 m

Güncel hava durumu gözlemi

Rapor saat 00:00 UTC de 27 dakika önce yapıldı.
Rüzgar güneydoğudan 10 kt
Sıcaklık 27°C
Nem 58%
Basınç 1007 hPa
Görüş mesafesi 10 km veya daha fazla
1500 m altında bulut yok ve kümülonimbus yok

METAR: OBBI 190000Z 14010KT CAVOK 27/18 Q1007 NOSIG

Saat: 03:27 (00:27 UTC)

Tahmin

Rapor saat 23:00 UTC de 1 saat ve 27 dakika önce yapıldı.
Ayın 19'si saat 00 UTC'den ayın 20'si saat 06 UTC'ye kadar geçerli Tahmin
Rüzgar güneydoğudan 12 kt
Görüş mesafesi 10 km veya daha fazla
1500 m altında bulut yok ve kümülonimbus yok
Dönüşüyor
ayın 19'si saat 14 UTC'den ayın 19'si saat 16 UTC'ye kadar
Rüzgar kuzeydoğudan 10 kt

TAF: OBBI 182300Z 1900/2006 13012KT CAVOK BECMG 1914/1916 04010KT

4.000'den fazla havaalanı için hava durumu gözlemleri ve tahminleri (METAR ve TAF raporları).

Kullanılabilir istasyonlar harita üzerinde sarı ve kırmızı noktalarla gösterilir.

İstasyonun adını görmek için fareyi noktanın üzerinde gezdirin.

Sonrasında hava gözlem ve tahminlerini görmek için tıklayın.

Haritayı değiştirmek için: yaklaştırmak için siyah artı işaretli yeşil düğmeye ve uzaklaştırmak için de eksi işaretli düğmeye hızla tıklayın; bitişik haritalar için yeşil okları kullanın.


METAR-TAF: